sensor_id;sensor_type;location;lat;lon;timestamp;P1;durP1;ratioP1;P2;durP2;ratioP2
28309;SDS011;15571;50.974;13.936;2022-10-22T03:41:41;58.67;;;31.35;;
28309;SDS011;15571;50.974;13.936;2022-10-22T03:44:45;58.78;;;32.20;;
28309;SDS011;15571;50.974;13.936;2022-10-22T03:47:48;59.58;;;32.63;;
28309;SDS011;15571;50.974;13.936;2022-10-22T03:50:50;60.90;;;32.88;;
28309;SDS011;15571;50.974;13.936;2022-10-22T03:53:53;59.72;;;31.92;;
28309;SDS011;15571;50.974;13.936;2022-10-22T03:57:01;55.22;;;30.30;;
28309;SDS011;15571;50.974;13.936;2022-10-22T04:00:08;59.35;;;31.77;;
28309;SDS011;15571;50.974;13.936;2022-10-22T04:03:15;55.35;;;30.63;;
28309;SDS011;15571;50.974;13.936;2022-10-22T04:06:17;55.10;;;30.63;;
28309;SDS011;15571;50.974;13.936;2022-10-22T04:09:20;55.20;;;29.92;;
28309;SDS011;15571;50.974;13.936;2022-10-22T04:12:24;56.88;;;30.05;;
28309;SDS011;15571;50.974;13.936;2022-10-22T04:15:29;58.00;;;30.50;;
28309;SDS011;15571;50.974;13.936;2022-10-22T04:18:35;57.42;;;30.05;;
28309;SDS011;15571;50.974;13.936;2022-10-22T04:21:41;51.15;;;27.77;;
28309;SDS011;15571;50.974;13.936;2022-10-22T04:24:43;58.53;;;29.30;;
28309;SDS011;15571;50.974;13.936;2022-10-22T04:27:47;59.70;;;30.98;;
28309;SDS011;15571;50.974;13.936;2022-10-22T04:30:49;54.10;;;28.73;;
28309;SDS011;15571;50.974;13.936;2022-10-22T04:33:55;55.17;;;29.95;;
28309;SDS011;15571;50.974;13.936;2022-10-22T04:37:01;58.60;;;30.70;;
28309;SDS011;15571;50.974;13.936;2022-10-22T04:40:04;53.78;;;28.58;;
28309;SDS011;15571;50.974;13.936;2022-10-22T04:43:10;57.28;;;30.10;;
28309;SDS011;15571;50.974;13.936;2022-10-22T04:46:14;57.85;;;28.52;;
28309;SDS011;15571;50.974;13.936;2022-10-22T04:49:17;56.40;;;30.58;;
28309;SDS011;15571;50.974;13.936;2022-10-22T04:52:20;57.22;;;29.88;;
28309;SDS011;15571;50.974;13.936;2022-10-22T04:55:23;50.70;;;28.63;;
28309;SDS011;15571;50.974;13.936;2022-10-22T04:58:29;52.83;;;28.80;;
28309;SDS011;15571;50.974;13.936;2022-10-22T05:01:32;50.92;;;26.83;;
28309;SDS011;15571;50.974;13.936;2022-10-22T05:04:37;53.13;;;27.83;;
28309;SDS011;15571;50.974;13.936;2022-10-22T05:07:42;47.20;;;27.63;;
28309;SDS011;15571;50.974;13.936;2022-10-22T05:10:45;55.05;;;29.55;;
28309;SDS011;15571;50.974;13.936;2022-10-22T05:13:49;51.67;;;28.20;;
28309;SDS011;15571;50.974;13.936;2022-10-22T05:16:52;51.70;;;27.27;;
28309;SDS011;15571;50.974;13.936;2022-10-22T05:19:54;46.90;;;25.73;;
28309;SDS011;15571;50.974;13.936;2022-10-22T05:22:57;51.50;;;26.77;;
28309;SDS011;15571;50.974;13.936;2022-10-22T05:26:00;56.15;;;27.80;;
28309;SDS011;15571;50.974;13.936;2022-10-22T05:29:04;51.97;;;27.85;;
28309;SDS011;15571;50.974;13.936;2022-10-22T05:32:07;55.40;;;27.60;;
28309;SDS011;15571;50.974;13.936;2022-10-22T05:35:09;56.47;;;28.80;;
28309;SDS011;15571;50.974;13.936;2022-10-22T05:38:13;53.58;;;28.25;;
28309;SDS011;15571;50.974;13.936;2022-10-22T05:41:16;49.92;;;28.67;;
28309;SDS011;15571;50.974;13.936;2022-10-22T05:44:22;48.78;;;26.05;;
28309;SDS011;15571;50.974;13.936;2022-10-22T05:47:25;46.10;;;26.13;;
28309;SDS011;15571;50.974;13.936;2022-10-22T05:50:29;49.20;;;26.33;;
28309;SDS011;15571;50.974;13.936;2022-10-22T05:53:32;50.40;;;26.20;;
28309;SDS011;15571;50.974;13.936;2022-10-22T05:56:37;48.55;;;25.83;;
28309;SDS011;15571;50.974;13.936;2022-10-22T05:59:43;43.88;;;24.60;;
28309;SDS011;15571;50.974;13.936;2022-10-22T06:02:48;49.05;;;26.30;;
28309;SDS011;15571;50.974;13.936;2022-10-22T06:05:54;45.63;;;25.85;;
28309;SDS011;15571;50.974;13.936;2022-10-22T06:08:58;44.38;;;25.15;;
28309;SDS011;15571;50.974;13.936;2022-10-22T06:12:03;53.85;;;26.88;;
28309;SDS011;15571;50.974;13.936;2022-10-22T06:15:11;49.40;;;26.05;;
28309;SDS011;15571;50.974;13.936;2022-10-22T06:18:15;49.35;;;26.08;;
28309;SDS011;15571;50.974;13.936;2022-10-22T06:21:21;47.30;;;24.92;;
28309;SDS011;15571;50.974;13.936;2022-10-22T06:24:27;47.95;;;25.90;;
28309;SDS011;15571;50.974;13.936;2022-10-22T06:27:32;47.40;;;25.00;;
28309;SDS011;15571;50.974;13.936;2022-10-22T06:30:37;45.85;;;25.65;;
28309;SDS011;15571;50.974;13.936;2022-10-22T06:33:40;49.03;;;26.88;;
28309;SDS011;15571;50.974;13.936;2022-10-22T06:36:45;50.17;;;26.40;;
28309;SDS011;15571;50.974;13.936;2022-10-22T06:39:51;44.17;;;24.65;;
28309;SDS011;15571;50.974;13.936;2022-10-22T06:42:57;51.50;;;25.00;;
28309;SDS011;15571;50.974;13.936;2022-10-22T06:46:05;45.25;;;25.60;;
28309;SDS011;15571;50.974;13.936;2022-10-22T06:49:11;51.33;;;25.77;;
28309;SDS011;15571;50.974;13.936;2022-10-22T06:52:16;50.88;;;25.95;;
28309;SDS011;15571;50.974;13.936;2022-10-22T06:55:21;51.20;;;27.00;;
28309;SDS011;15571;50.974;13.936;2022-10-22T06:58:26;52.15;;;25.67;;
28309;SDS011;15571;50.974;13.936;2022-10-22T07:01:31;43.28;;;24.60;;
28309;SDS011;15571;50.974;13.936;2022-10-22T07:04:35;42.85;;;24.77;;
28309;SDS011;15571;50.974;13.936;2022-10-22T07:07:40;47.33;;;24.23;;
28309;SDS011;15571;50.974;13.936;2022-10-22T07:10:43;47.35;;;24.08;;
28309;SDS011;15571;50.974;13.936;2022-10-22T07:13:48;42.45;;;23.17;;
28309;SDS011;15571;50.974;13.936;2022-10-22T07:16:53;46.13;;;24.70;;
28309;SDS011;15571;50.974;13.936;2022-10-22T07:19:56;40.35;;;22.80;;
28309;SDS011;15571;50.974;13.936;2022-10-22T07:22:59;46.03;;;22.95;;
28309;SDS011;15571;50.974;13.936;2022-10-22T07:26:02;40.30;;;22.85;;
28309;SDS011;15571;50.974;13.936;2022-10-22T07:29:06;44.63;;;24.38;;
28309;SDS011;15571;50.974;13.936;2022-10-22T07:32:13;43.83;;;23.30;;
28309;SDS011;15571;50.974;13.936;2022-10-22T07:35:16;43.63;;;23.77;;
28309;SDS011;15571;50.974;13.936;2022-10-22T07:38:18;41.65;;;22.95;;
28309;SDS011;15571;50.974;13.936;2022-10-22T07:41:24;41.40;;;23.80;;
28309;SDS011;15571;50.974;13.936;2022-10-22T07:44:29;41.90;;;23.52;;
28309;SDS011;15571;50.974;13.936;2022-10-22T07:47:33;44.85;;;23.20;;
28309;SDS011;15571;50.974;13.936;2022-10-22T07:50:35;35.08;;;20.23;;
28309;SDS011;15571;50.974;13.936;2022-10-22T07:53:38;36.38;;;22.20;;
28309;SDS011;15571;50.974;13.936;2022-10-22T07:56:43;42.03;;;22.70;;
28309;SDS011;15571;50.974;13.936;2022-10-22T07:59:48;34.28;;;20.05;;
28309;SDS011;15571;50.974;13.936;2022-10-22T08:02:52;33.28;;;19.92;;
28309;SDS011;15571;50.974;13.936;2022-10-22T08:05:54;37.47;;;20.73;;
28309;SDS011;15571;50.974;13.936;2022-10-22T08:09:00;29.55;;;18.88;;
28309;SDS011;15571;50.974;13.936;2022-10-22T08:12:04;34.15;;;18.75;;
28309;SDS011;15571;50.974;13.936;2022-10-22T08:15:09;34.65;;;20.80;;
28309;SDS011;15571;50.974;13.936;2022-10-22T08:18:13;33.97;;;21.38;;
28309;SDS011;15571;50.974;13.936;2022-10-22T08:21:16;34.35;;;19.83;;
28309;SDS011;15571;50.974;13.936;2022-10-22T08:24:19;30.33;;;19.35;;
28309;SDS011;15571;50.974;13.936;2022-10-22T08:27:21;28.95;;;18.88;;
28309;SDS011;15571;50.974;13.936;2022-10-22T08:30:24;28.83;;;18.45;;
28309;SDS011;15571;50.974;13.936;2022-10-22T08:33:30;30.42;;;18.25;;
28309;SDS011;15571;50.974;13.936;2022-10-22T08:36:33;28.58;;;16.98;;
28309;SDS011;15571;50.974;13.936;2022-10-22T08:39:35;34.13;;;19.30;;
28309;SDS011;15571;50.974;13.936;2022-10-22T08:42:49;28.88;;;18.55;;
28309;SDS011;15571;50.974;13.936;2022-10-22T08:46:19;28.58;;;17.55;;
28309;SDS011;15571;50.974;13.936;2022-10-22T08:49:37;23.02;;;15.60;;
28309;SDS011;15571;50.974;13.936;2022-10-22T08:52:50;27.17;;;16.75;;
28309;SDS011;15571;50.974;13.936;2022-10-22T08:55:58;26.50;;;15.98;;
28309;SDS011;15571;50.974;13.936;2022-10-22T08:59:03;29.23;;;17.20;;
28309;SDS011;15571;50.974;13.936;2022-10-22T09:02:18;26.77;;;17.13;;
28309;SDS011;15571;50.974;13.936;2022-10-22T09:05:37;23.75;;;15.70;;
28309;SDS011;15571;50.974;13.936;2022-10-22T09:08:44;29.35;;;16.27;;
28309;SDS011;15571;50.974;13.936;2022-10-22T09:11:48;23.15;;;15.55;;
28309;SDS011;15571;50.974;13.936;2022-10-22T09:14:54;22.20;;;14.88;;
28309;SDS011;15571;50.974;13.936;2022-10-22T09:18:03;23.75;;;15.52;;
28309;SDS011;15571;50.974;13.936;2022-10-22T09:21:18;23.15;;;14.93;;
28309;SDS011;15571;50.974;13.936;2022-10-22T09:24:30;21.10;;;13.55;;
28309;SDS011;15571;50.974;13.936;2022-10-22T09:27:37;17.25;;;13.02;;
28309;SDS011;15571;50.974;13.936;2022-10-22T09:30:42;18.58;;;12.75;;
28309;SDS011;15571;50.974;13.936;2022-10-22T09:33:49;17.83;;;13.18;;
28309;SDS011;15571;50.974;13.936;2022-10-22T09:36:57;17.85;;;11.15;;
28309;SDS011;15571;50.974;13.936;2022-10-22T09:40:03;17.77;;;11.80;;
28309;SDS011;15571;50.974;13.936;2022-10-22T09:43:07;14.65;;;10.82;;
28309;SDS011;15571;50.974;13.936;2022-10-22T09:46:15;15.57;;;10.38;;
28309;SDS011;15571;50.974;13.936;2022-10-22T09:49:20;13.73;;;10.00;;
28309;SDS011;15571;50.974;13.936;2022-10-22T09:52:26;14.93;;;10.02;;
28309;SDS011;15571;50.974;13.936;2022-10-22T09:55:31;16.77;;;11.10;;
28309;SDS011;15571;50.974;13.936;2022-10-22T09:58:40;15.55;;;10.70;;
28309;SDS011;15571;50.974;13.936;2022-10-22T10:01:44;13.98;;;10.07;;
28309;SDS011;15571;50.974;13.936;2022-10-22T10:04:47;15.95;;;10.70;;
28309;SDS011;15571;50.974;13.936;2022-10-22T10:07:59;14.98;;;10.73;;
28309;SDS011;15571;50.974;13.936;2022-10-22T10:11:13;13.87;;;10.03;;
28309;SDS011;15571;50.974;13.936;2022-10-22T10:14:25;16.05;;;10.77;;
28309;SDS011;15571;50.974;13.936;2022-10-22T10:17:38;17.58;;;12.05;;
28309;SDS011;15571;50.974;13.936;2022-10-22T10:20:48;17.65;;;10.93;;
28309;SDS011;15571;50.974;13.936;2022-10-22T10:24:02;15.05;;;10.98;;
28309;SDS011;15571;50.974;13.936;2022-10-22T10:27:19;14.00;;;10.50;;
28309;SDS011;15571;50.974;13.936;2022-10-22T10:30:29;14.18;;;11.32;;
28309;SDS011;15571;50.974;13.936;2022-10-22T10:33:36;16.95;;;11.63;;
28309;SDS011;15571;50.974;13.936;2022-10-22T10:36:50;15.60;;;11.13;;
28309;SDS011;15571;50.974;13.936;2022-10-22T10:40:11;14.52;;;11.20;;
28309;SDS011;15571;50.974;13.936;2022-10-22T10:43:28;15.98;;;11.35;;
28309;SDS011;15571;50.974;13.936;2022-10-22T10:46:41;16.40;;;12.35;;
28309;SDS011;15571;50.974;13.936;2022-10-22T10:49:51;13.70;;;10.85;;
28309;SDS011;15571;50.974;13.936;2022-10-22T10:53:01;16.35;;;10.77;;
28309;SDS011;15571;50.974;13.936;2022-10-22T10:56:16;15.70;;;11.48;;
28309;SDS011;15571;50.974;13.936;2022-10-22T10:59:36;14.80;;;10.60;;
28309;SDS011;15571;50.974;13.936;2022-10-22T11:03:08;16.77;;;11.45;;
28309;SDS011;15571;50.974;13.936;2022-10-22T11:06:37;14.05;;;10.55;;
28309;SDS011;15571;50.974;13.936;2022-10-22T11:09:42;16.58;;;11.95;;
28309;SDS011;15571;50.974;13.936;2022-10-22T11:12:50;14.52;;;11.18;;
28309;SDS011;15571;50.974;13.936;2022-10-22T11:16:02;14.95;;;11.38;;
28309;SDS011;15571;50.974;13.936;2022-10-22T11:19:15;17.63;;;12.35;;
28309;SDS011;15571;50.974;13.936;2022-10-22T11:22:28;17.60;;;11.82;;
28309;SDS011;15571;50.974;13.936;2022-10-22T11:25:37;16.70;;;11.70;;
28309;SDS011;15571;50.974;13.936;2022-10-22T11:28:46;16.65;;;11.48;;
28309;SDS011;15571;50.974;13.936;2022-10-22T11:31:53;17.25;;;12.02;;
28309;SDS011;15571;50.974;13.936;2022-10-22T11:34:58;18.65;;;12.43;;
28309;SDS011;15571;50.974;13.936;2022-10-22T11:38:04;16.98;;;11.48;;
28309;SDS011;15571;50.974;13.936;2022-10-22T11:41:10;13.77;;;10.88;;
28309;SDS011;15571;50.974;13.936;2022-10-22T11:44:21;14.45;;;11.00;;
28309;SDS011;15571;50.974;13.936;2022-10-22T11:47:26;18.35;;;11.50;;
28309;SDS011;15571;50.974;13.936;2022-10-22T11:50:42;17.90;;;11.38;;
28309;SDS011;15571;50.974;13.936;2022-10-22T11:53:47;14.68;;;11.43;;
28309;SDS011;15571;50.974;13.936;2022-10-22T11:56:57;19.40;;;13.05;;
28309;SDS011;15571;50.974;13.936;2022-10-22T12:00:34;16.95;;;12.02;;
28309;SDS011;15571;50.974;13.936;2022-10-22T12:03:51;17.27;;;11.70;;
28309;SDS011;15571;50.974;13.936;2022-10-22T12:06:58;18.13;;;12.32;;
28309;SDS011;15571;50.974;13.936;2022-10-22T12:10:04;15.60;;;11.80;;
28309;SDS011;15571;50.974;13.936;2022-10-22T12:13:17;16.77;;;12.35;;
28309;SDS011;15571;50.974;13.936;2022-10-22T12:16:24;15.05;;;10.35;;
28309;SDS011;15571;50.974;13.936;2022-10-22T12:19:34;18.02;;;12.30;;
28309;SDS011;15571;50.974;13.936;2022-10-22T12:22:38;18.35;;;12.40;;
28309;SDS011;15571;50.974;13.936;2022-10-22T12:25:41;19.73;;;12.68;;
28309;SDS011;15571;50.974;13.936;2022-10-22T12:28:43;19.38;;;13.57;;
28309;SDS011;15571;50.974;13.936;2022-10-22T12:31:47;19.13;;;13.13;;
28309;SDS011;15571;50.974;13.936;2022-10-22T12:34:53;18.90;;;13.70;;
28309;SDS011;15571;50.974;13.936;2022-10-22T12:38:04;18.73;;;13.73;;
28309;SDS011;15571;50.974;13.936;2022-10-22T12:41:14;19.58;;;13.25;;
28309;SDS011;15571;50.974;13.936;2022-10-22T12:44:18;16.60;;;13.02;;
28309;SDS011;15571;50.974;13.936;2022-10-22T12:47:26;19.67;;;13.30;;
28309;SDS011;15571;50.974;13.936;2022-10-22T16:54:23;44.15;;;26.33;;
28309;SDS011;15571;50.974;13.936;2022-10-22T16:57:28;47.72;;;28.58;;
28309;SDS011;15571;50.974;13.936;2022-10-22T17:00:33;48.47;;;27.90;;
28309;SDS011;15571;50.974;13.936;2022-10-22T17:03:36;48.30;;;29.00;;
28309;SDS011;15571;50.974;13.936;2022-10-22T17:06:38;50.85;;;28.73;;
28309;SDS011;15571;50.974;13.936;2022-10-22T17:09:42;43.63;;;27.10;;
28309;SDS011;15571;50.974;13.936;2022-10-22T17:12:45;49.03;;;29.35;;
28309;SDS011;15571;50.974;13.936;2022-10-22T17:15:49;50.92;;;30.25;;
28309;SDS011;15571;50.974;13.936;2022-10-22T17:18:52;48.75;;;29.13;;
28309;SDS011;15571;50.974;13.936;2022-10-22T17:21:55;49.22;;;28.38;;
28309;SDS011;15571;50.974;13.936;2022-10-22T17:25:10;45.67;;;28.25;;
28309;SDS011;15571;50.974;13.936;2022-10-22T17:28:14;44.80;;;26.95;;
28309;SDS011;15571;50.974;13.936;2022-10-22T17:31:17;44.88;;;26.42;;
28309;SDS011;15571;50.974;13.936;2022-10-22T17:34:23;38.47;;;24.77;;
28309;SDS011;15571;50.974;13.936;2022-10-22T17:37:27;43.55;;;26.40;;
28309;SDS011;15571;50.974;13.936;2022-10-22T17:40:34;46.40;;;27.38;;
28309;SDS011;15571;50.974;13.936;2022-10-22T17:43:41;44.75;;;26.45;;
28309;SDS011;15571;50.974;13.936;2022-10-22T17:46:44;45.97;;;26.92;;
28309;SDS011;15571;50.974;13.936;2022-10-22T17:49:49;47.90;;;27.25;;
28309;SDS011;15571;50.974;13.936;2022-10-22T17:52:57;50.15;;;27.20;;
28309;SDS011;15571;50.974;13.936;2022-10-22T17:56:01;41.88;;;26.15;;
28309;SDS011;15571;50.974;13.936;2022-10-22T17:59:10;40.90;;;24.90;;
28309;SDS011;15571;50.974;13.936;2022-10-22T18:02:16;40.83;;;25.38;;
28309;SDS011;15571;50.974;13.936;2022-10-22T18:05:19;42.47;;;24.92;;
28309;SDS011;15571;50.974;13.936;2022-10-22T18:08:21;39.63;;;25.02;;
28309;SDS011;15571;50.974;13.936;2022-10-22T18:11:26;34.65;;;22.52;;
28309;SDS011;15571;50.974;13.936;2022-10-22T18:14:32;36.83;;;24.02;;
28309;SDS011;15571;50.974;13.936;2022-10-22T18:17:34;44.03;;;25.88;;
28309;SDS011;15571;50.974;13.936;2022-10-22T18:20:40;40.60;;;25.70;;
28309;SDS011;15571;50.974;13.936;2022-10-22T18:23:43;41.13;;;24.48;;
28309;SDS011;15571;50.974;13.936;2022-10-22T18:26:48;38.00;;;24.95;;
28309;SDS011;15571;50.974;13.936;2022-10-22T18:29:50;38.50;;;24.83;;
28309;SDS011;15571;50.974;13.936;2022-10-22T18:32:53;39.90;;;24.85;;
28309;SDS011;15571;50.974;13.936;2022-10-22T18:35:55;39.38;;;24.75;;
28309;SDS011;15571;50.974;13.936;2022-10-22T18:39:00;47.83;;;26.92;;
28309;SDS011;15571;50.974;13.936;2022-10-22T18:42:06;43.15;;;26.13;;
28309;SDS011;15571;50.974;13.936;2022-10-22T18:45:10;44.35;;;26.80;;
28309;SDS011;15571;50.974;13.936;2022-10-22T18:48:13;40.55;;;24.25;;
28309;SDS011;15571;50.974;13.936;2022-10-22T18:51:23;37.10;;;23.77;;
28309;SDS011;15571;50.974;13.936;2022-10-22T18:54:29;37.90;;;23.60;;
28309;SDS011;15571;50.974;13.936;2022-10-22T18:57:35;39.78;;;23.95;;
28309;SDS011;15571;50.974;13.936;2022-10-22T19:00:38;38.83;;;22.73;;
28309;SDS011;15571;50.974;13.936;2022-10-22T19:03:41;39.47;;;23.58;;
28309;SDS011;15571;50.974;13.936;2022-10-22T19:06:43;33.70;;;20.70;;
28309;SDS011;15571;50.974;13.936;2022-10-22T19:09:46;36.38;;;22.00;;
28309;SDS011;15571;50.974;13.936;2022-10-22T19:12:51;34.55;;;21.65;;
28309;SDS011;15571;50.974;13.936;2022-10-22T19:15:53;36.70;;;22.42;;
28309;SDS011;15571;50.974;13.936;2022-10-22T19:19:03;35.65;;;20.15;;
28309;SDS011;15571;50.974;13.936;2022-10-22T19:22:11;32.92;;;21.70;;
28309;SDS011;15571;50.974;13.936;2022-10-22T19:25:16;34.00;;;19.73;;
28309;SDS011;15571;50.974;13.936;2022-10-22T19:35:20;33.63;;;19.38;;
28309;SDS011;15571;50.974;13.936;2022-10-22T19:39:13;31.00;;;19.10;;
28309;SDS011;15571;50.974;13.936;2022-10-22T19:46:28;34.78;;;20.70;;
28309;SDS011;15571;50.974;13.936;2022-10-22T19:49:33;36.58;;;21.65;;
28309;SDS011;15571;50.974;13.936;2022-10-22T19:52:36;37.47;;;20.75;;
28309;SDS011;15571;50.974;13.936;2022-10-22T19:55:41;33.65;;;21.10;;
28309;SDS011;15571;50.974;13.936;2022-10-22T19:58:44;35.78;;;21.35;;
28309;SDS011;15571;50.974;13.936;2022-10-22T20:01:49;33.90;;;20.50;;
